Time;durP1;ratioP1;P1;durP2;ratioP2;P2;SDS_P1;SDS_P2;PMS_P1;PMS_P2;Temp;Humidity;BMP_temperature;BMP_pressure;BME280_temperature;BME280_humidity;BME280_pressure;Samples;Min_cycle;Max_cycle;Signal;HPM_P1;HPM_P2
2022/04/06 00:01:27;;;;;;;14.33;11.03;;;;;;;7.16;100.00;99380.34;4969663;28;20205;-66
2022/04/06 00:03:54;;;;;;;13.33;11.90;;;;;;;7.17;100.00;99370.81;4961493;28;20212;-65
2022/04/06 00:06:21;;;;;;;13.90;11.20;;;;;;;7.17;100.00;99373.41;4959372;28;20210;-66
2022/04/06 00:08:47;;;;;;;14.77;12.07;;;;;;;7.17;100.00;99371.66;4973802;28;20201;-66
2022/04/06 00:11:14;;;;;;;14.47;11.90;;;;;;;7.20;100.00;99378.50;4968971;28;20299;-66
2022/04/06 00:13:41;;;;;;;14.03;11.83;;;;;;;7.20;100.00;99376.75;4978967;28;20232;-66
2022/04/06 00:16:08;;;;;;;13.53;11.73;;;;;;;7.21;100.00;99367.22;4961038;28;20206;-66
2022/04/06 00:18:34;;;;;;;15.90;12.20;;;;;;;7.21;100.00;99377.59;4960731;28;20198;-65
2022/04/06 00:21:00;;;;;;;15.03;12.40;;;;;;;7.21;100.00;99375.00;4957279;28;20203;-66
2022/04/06 00:23:27;;;;;;;15.20;12.27;;;;;;;7.22;100.00;99379.28;4966214;28;20260;-65
2022/04/06 00:25:55;;;;;;;17.70;13.37;;;;;;;7.23;100.00;99378.41;4974091;28;20198;-66
2022/04/06 00:28:21;;;;;;;16.80;13.17;;;;;;;7.25;100.00;99381.81;4968495;28;20207;-66
2022/04/06 00:30:49;;;;;;;16.97;12.37;;;;;;;7.23;100.00;99378.41;4970708;28;20677;-66
2022/04/06 00:33:16;;;;;;;16.03;13.13;;;;;;;7.22;100.00;99378.47;4980526;28;20217;-65
2022/04/06 00:35:43;;;;;;;16.23;12.33;;;;;;;7.21;100.00;99377.59;4977430;28;20214;-66
2022/04/06 00:38:10;;;;;;;15.73;12.77;;;;;;;7.22;100.00;99381.88;4963101;28;20225;-65
2022/04/06 00:40:38;;;;;;;13.57;11.73;;;;;;;7.25;100.00;99381.81;4960214;28;20252;-66
2022/04/06 00:43:07;;;;;;;15.93;12.47;;;;;;;7.23;100.00;99381.00;4970533;28;20221;-66
2022/04/06 00:45:33;;;;;;;14.63;11.80;;;;;;;7.25;100.00;99378.38;4967979;28;20237;-66
2022/04/06 00:48:01;;;;;;;14.03;12.03;;;;;;;7.23;100.00;99375.81;4972001;28;20201;-66
2022/04/06 00:50:28;;;;;;;14.37;11.73;;;;;;;7.24;100.00;99374.06;4973123;28;20393;-66
2022/04/06 00:52:57;;;;;;;15.63;11.80;;;;;;;7.23;100.00;99375.81;4979152;28;20224;-66
2022/04/06 00:55:26;;;;;;;15.23;11.67;;;;;;;7.23;100.00;99377.53;4975219;28;20214;-66
2022/04/06 00:57:52;;;;;;;13.60;11.20;;;;;;;7.25;100.00;99376.63;4977457;28;20209;-66
2022/04/06 01:00:19;;;;;;;16.53;12.07;;;;;;;7.25;100.00;99373.19;4972344;28;20210;-66
2022/04/06 01:02:45;;;;;;;15.53;11.67;;;;;;;7.25;100.00;99378.38;4960938;28;20225;-65
2022/04/06 01:05:13;;;;;;;13.70;11.20;;;;;;;7.25;100.00;99373.19;4963232;28;20986;-66
2022/04/06 01:07:41;;;;;;;18.23;12.37;;;;;;;7.26;100.00;99372.25;4973172;28;20201;-66
2022/04/06 01:10:08;;;;;;;17.90;11.93;;;;;;;7.26;100.00;99382.63;4964906;28;20256;-65
2022/04/06 01:12:35;;;;;;;15.50;11.13;;;;;;;7.25;100.00;99376.63;4973936;28;20221;-66
2022/04/06 01:15:01;;;;;;;17.70;12.43;;;;;;;7.24;100.00;99376.66;4972605;28;20240;-65
2022/04/06 01:17:33;;;;;;;17.23;11.57;;;;;;;7.25;100.00;99371.44;4965925;28;20205;-66
2022/04/06 01:20:00;;;;;;;16.93;12.37;;;;;;;7.24;100.00;99367.13;4970895;28;20292;-66
2022/04/06 01:22:28;;;;;;;16.63;12.13;;;;;;;7.25;100.00;99373.19;4974918;28;20222;-66
2022/04/06 01:24:55;;;;;;;15.80;12.23;;;;;;;7.23;100.00;99368.03;4966969;28;20206;-66
2022/04/06 01:27:21;;;;;;;16.90;12.50;;;;;;;7.25;100.00;99376.63;4964527;28;20670;-66
2022/04/06 01:29:50;;;;;;;16.27;12.30;;;;;;;7.26;100.00;99370.50;4968812;28;20210;-66
2022/04/06 01:32:19;;;;;;;18.30;12.00;;;;;;;7.25;100.00;99368.84;4968942;28;20225;-66
2022/04/06 01:34:46;;;;;;;18.17;13.00;;;;;;;7.25;100.00;99370.59;4960125;28;20209;-66
2022/04/06 01:37:14;;;;;;;17.70;12.57;;;;;;;7.26;100.00;99377.44;4971027;28;20734;-66
2022/04/06 01:39:43;;;;;;;17.70;12.20;;;;;;;7.24;100.00;99379.25;4966986;28;20232;-66
2022/04/06 01:42:12;;;;;;;15.73;12.07;;;;;;;7.24;100.00;99380.09;4974277;28;20225;-66
2022/04/06 01:44:38;;;;;;;20.83;12.57;;;;;;;7.24;100.00;99374.91;4973534;28;20198;-66
2022/04/06 01:47:08;;;;;;;17.83;12.57;;;;;;;7.25;100.00;99370.59;4974400;28;20210;-66
2022/04/06 01:52:20;;;;;;;16.77;12.93;;;;;;;7.26;100.00;99369.66;4968960;28;20226;-66
2022/04/06 01:54:49;;;;;;;19.07;13.40;;;;;;;7.26;100.00;99377.44;4984515;28;20697;-66
2022/04/06 01:57:17;;;;;;;19.20;12.80;;;;;;;7.26;100.00;99373.09;4976685;28;20193;-66
2022/04/06 01:59:43;;;;;;;18.87;12.80;;;;;;;7.27;100.00;99373.97;4967843;28;20207;-66
2022/04/06 02:02:12;;;;;;;15.87;12.10;;;;;;;7.28;100.00;99379.13;4973859;28;20276;-66
2022/04/06 02:04:39;;;;;;;18.63;13.57;;;;;;;7.27;100.00;99372.22;4971820;28;20205;-66
2022/04/06 02:07:06;;;;;;;19.33;12.93;;;;;;;7.27;100.00;99376.56;4968909;28;20210;-66
2022/04/06 02:09:32;;;;;;;16.87;12.30;;;;;;;7.29;100.00;99369.59;4963885;28;20206;-66
2022/04/06 02:12:01;;;;;;;19.47;13.60;;;;;;;7.31;100.00;99375.56;4975330;28;20674;-66
2022/04/06 02:14:28;;;;;;;19.43;13.33;;;;;;;7.31;100.00;99370.38;4977797;28;20216;-66
2022/04/06 02:16:54;;;;;;;18.60;13.10;;;;;;;7.33;100.00;99368.56;4976162;28;20205;-66
2022/04/06 02:19:21;;;;;;;20.17;13.40;;;;;;;7.32;100.00;99362.56;4962479;28;20198;-66
2022/04/06 02:21:47;;;;;;;20.47;13.80;;;;;;;7.31;100.00;99363.44;4973287;28;20200;-66
2022/04/06 02:24:14;;;;;;;19.03;12.73;;;;;;;7.31;100.00;99365.19;4964564;28;20244;-66
2022/04/06 02:26:40;;;;;;;20.50;13.67;;;;;;;7.31;100.00;99365.19;4971310;28;20687;-66
2022/04/06 02:29:08;;;;;;;18.93;13.10;;;;;;;7.31;100.00;99366.03;4959671;28;20234;-66
2022/04/06 02:31:34;;;;;;;21.90;12.43;;;;;;;7.32;100.00;99359.13;4960450;28;20595;-66
2022/04/06 02:34:01;;;;;;;18.63;13.67;;;;;;;7.30;100.00;99353.09;4959119;28;20427;-66
2022/04/06 02:36:27;;;;;;;18.13;13.17;;;;;;;7.30;100.00;99355.69;4967890;28;20210;-66
2022/04/06 02:38:53;;;;;;;20.77;13.30;;;;;;;7.28;100.00;99358.38;4969522;28;20206;-66
2022/04/06 02:41:20;;;;;;;18.90;12.53;;;;;;;7.26;100.00;99354.97;4969087;28;20204;-66
2022/04/06 02:43:46;;;;;;;16.60;12.93;;;;;;;7.25;100.00;99348.09;4966315;28;20369;-66
2022/04/06 02:46:14;;;;;;;17.50;12.40;;;;;;;7.26;100.00;99348.94;4960873;28;20213;-65
2022/04/06 02:48:41;;;;;;;18.10;12.20;;;;;;;7.25;100.00;99345.50;4961296;28;21355;-65
2022/04/06 02:51:07;;;;;;;18.93;12.73;;;;;;;7.22;100.00;99347.34;4976224;28;20244;-66
2022/04/06 02:53:33;;;;;;;18.33;12.60;;;;;;;7.23;100.00;99349.91;4970948;28;20617;-66
2022/04/06 02:56:00;;;;;;;17.30;11.73;;;;;;;7.22;100.00;99350.78;4960376;28;20570;-66
2022/04/06 02:58:26;;;;;;;19.23;12.83;;;;;;;7.21;100.00;99346.47;4955135;28;20206;-66
2022/04/06 03:00:54;;;;;;;17.83;11.93;;;;;;;7.22;100.00;99350.78;4962392;28;20200;-66
2022/04/06 03:03:22;;;;;;;16.43;12.23;;;;;;;7.22;100.00;99345.59;4954211;28;20515;-66
2022/04/06 03:05:48;;;;;;;16.80;12.30;;;;;;;7.23;100.00;99344.72;4963015;28;20629;-66
2022/04/06 03:08:15;;;;;;;18.20;12.23;;;;;;;7.23;100.00;99347.31;4962484;28;20205;-65
2022/04/06 03:10:41;;;;;;;16.07;11.67;;;;;;;7.20;100.00;99353.41;4951818;28;20194;-66
2022/04/06 03:13:08;;;;;;;16.77;12.40;;;;;;;7.22;100.00;99349.94;4959332;28;20648;-66
2022/04/06 03:15:34;;;;;;;15.83;11.67;;;;;;;7.19;100.00;99351.75;4967647;28;20198;-66
2022/04/06 03:18:02;;;;;;;16.63;11.87;;;;;;;7.22;100.00;99342.16;4971467;28;20206;-66
2022/04/06 03:20:29;;;;;;;15.77;11.77;;;;;;;7.21;100.00;99346.47;4957620;28;20955;-66
2022/04/06 03:22:56;;;;;;;17.23;11.50;;;;;;;7.18;100.00;99337.06;4956409;28;20233;-66
2022/04/06 03:25:22;;;;;;;16.83;12.13;;;;;;;7.17;100.00;99334.53;4963388;28;20402;-66
2022/04/06 03:27:49;;;;;;;16.80;12.10;;;;;;;7.18;100.00;99341.41;4963607;28;20199;-66
2022/04/06 03:30:15;;;;;;;16.77;12.57;;;;;;;7.16;100.00;99341.47;4965015;28;20210;-66
2022/04/06 03:32:42;;;;;;;17.13;12.57;;;;;;;7.18;100.00;99347.44;4969569;28;20241;-66
2022/04/06 03:35:09;;;;;;;19.40;12.93;;;;;;;7.16;100.00;99336.28;4969273;28;20256;-66
2022/04/06 03:37:37;;;;;;;18.23;13.13;;;;;;;7.17;100.00;99337.13;4964873;28;20684;-66
2022/04/06 03:40:05;;;;;;;18.90;12.23;;;;;;;7.16;100.00;99336.28;4971111;28;20202;-66
2022/04/06 03:42:32;;;;;;;17.37;13.50;;;;;;;7.17;100.00;99337.13;4971415;28;20253;-66
2022/04/06 03:44:58;;;;;;;16.93;13.30;;;;;;;7.17;100.00;99335.38;4967120;28;20494;-66
2022/04/06 03:47:29;;;;;;;18.73;12.57;;;;;;;7.16;100.00;99325.91;4967123;28;20202;-66
2022/04/06 03:49:55;;;;;;;22.77;13.77;;;;;;;7.17;100.00;99327.59;4959451;28;20567;-66
2022/04/06 03:52:22;;;;;;;20.63;13.70;;;;;;;7.17;100.00;99335.38;4966645;28;20230;-66
2022/04/06 03:54:49;;;;;;;18.33;13.67;;;;;;;7.15;100.00;99339.75;4977672;28;20237;-66
2022/04/06 03:57:16;;;;;;;21.53;14.23;;;;;;;7.13;100.00;99336.38;4967500;28;20201;-66
2022/04/06 03:59:42;;;;;;;20.13;13.70;;;;;;;7.13;100.00;99345.91;4979965;28;20206;-66
2022/04/06 04:02:08;;;;;;;19.23;13.40;;;;;;;7.11;100.00;99345.09;4970037;28;20507;-66
2022/04/06 04:04:35;;;;;;;21.80;13.17;;;;;;;7.11;100.00;99352.88;4968687;28;20584;-66
2022/04/06 04:07:01;;;;;;;19.37;12.60;;;;;;;7.10;100.00;99343.41;4967675;28;20210;-66
2022/04/06 04:09:28;;;;;;;19.70;13.87;;;;;;;7.11;100.00;99345.94;4969094;28;20271;-65
2022/04/06 04:11:57;;;;;;;21.10;13.97;;;;;;;7.09;100.00;99347.75;4959050;28;20225;-66
2022/04/06 04:14:23;;;;;;;19.07;12.60;;;;;;;7.12;100.00;99347.63;4953311;28;20222;-65
2022/04/06 04:16:50;;;;;;;19.97;13.37;;;;;;;7.11;100.00;99348.53;4947978;28;20206;-66
2022/04/06 04:19:16;;;;;;;19.77;12.83;;;;;;;7.11;100.00;99347.69;4959444;28;20208;-66
2022/04/06 04:21:43;;;;;;;20.50;13.40;;;;;;;7.10;100.00;99352.00;4955681;28;20325;-66
2022/04/06 04:24:10;;;;;;;20.13;12.73;;;;;;;7.09;100.00;99355.53;4957454;28;20206;-66
2022/04/06 04:26:38;;;;;;;19.33;12.53;;;;;;;7.11;100.00;99352.88;4944649;28;20291;-66
2022/04/06 04:29:07;;;;;;;21.43;13.13;;;;;;;7.11;100.00;99363.25;4948078;28;20288;-66
2022/04/06 04:31:34;;;;;;;21.50;13.27;;;;;;;7.10;100.00;99359.78;4945461;28;20313;-66
2022/04/06 04:34:00;;;;;;;19.10;13.00;;;;;;;7.10;100.00;99356.34;4941142;28;20211;-66
2022/04/06 04:36:28;;;;;;;19.30;11.90;;;;;;;7.08;100.00;99356.41;4945078;28;20203;-66
2022/04/06 04:38:54;;;;;;;24.73;13.00;;;;;;;7.13;100.00;99362.28;4940692;28;20194;-66
2022/04/06 04:41:21;;;;;;;20.90;13.03;;;;;;;7.13;100.00;99364.03;4942264;28;20198;-66
2022/04/06 04:43:48;;;;;;;19.60;11.83;;;;;;;7.13;100.00;99367.47;4942687;28;20231;-66
2022/04/06 04:46:16;;;;;;;21.43;12.30;;;;;;;7.14;100.00;99363.13;4950857;28;20292;-66
2022/04/06 04:48:42;;;;;;;22.03;12.20;;;;;;;7.16;100.00;99362.19;4949022;28;20222;-66
2022/04/06 04:51:08;;;;;;;22.00;12.47;;;;;;;7.16;100.00;99367.38;4953368;28;20198;-66
2022/04/06 04:53:35;;;;;;;25.37;14.13;;;;;;;7.15;100.00;99364.84;4950973;28;20805;-66
2022/04/06 04:56:01;;;;;;;21.57;12.30;;;;;;;7.14;100.00;99361.41;4953085;28;20533;-66
2022/04/06 04:58:27;;;;;;;24.07;14.10;;;;;;;7.14;100.00;99365.72;4957938;28;20214;-66
2022/04/06 05:00:54;;;;;;;24.60;12.63;;;;;;;7.14;100.00;99360.53;4942975;28;20301;-66
2022/04/06 05:03:22;;;;;;;22.20;13.47;;;;;;;7.14;100.00;99368.31;4939628;28;20369;-66
2022/04/06 05:05:51;;;;;;;23.53;13.07;;;;;;;7.14;100.00;99378.69;4947515;28;21772;-66
2022/04/06 05:08:18;;;;;;;25.23;13.53;;;;;;;7.13;100.00;99377.84;4941363;28;20571;-66
2022/04/06 05:10:44;;;;;;;23.47;13.20;;;;;;;7.14;100.00;99381.28;4948465;28;20213;-66
2022/04/06 05:13:13;;;;;;;22.77;12.37;;;;;;;7.14;100.00;99381.28;4942341;28;20685;-66
2022/04/06 05:15:39;;;;;;;23.03;12.77;;;;;;;7.17;100.00;99373.41;4948885;28;20669;-66
2022/04/06 05:18:06;;;;;;;22.63;13.17;;;;;;;7.19;100.00;99384.56;4962090;28;20225;-66
2022/04/06 05:20:34;;;;;;;21.57;12.73;;;;;;;7.22;100.00;99374.13;4946170;28;20216;-66
2022/04/06 05:23:00;;;;;;;25.27;14.43;;;;;;;7.24;100.00;99374.91;4948188;28;20687;-66
2022/04/06 05:25:27;;;;;;;22.23;13.23;;;;;;;7.26;100.00;99377.44;4958700;28;20206;-66
2022/04/06 05:27:55;;;;;;;21.03;12.53;;;;;;;7.28;100.00;99375.66;4961607;28;20240;-66
2022/04/06 05:30:23;;;;;;;25.40;13.60;;;;;;;7.30;100.00;99381.63;4965630;28;20261;-66
2022/04/06 05:32:51;;;;;;;22.77;13.50;;;;;;;7.31;100.00;99381.59;4962598;28;20602;-66
2022/04/06 05:35:18;;;;;;;24.17;13.00;;;;;;;7.33;100.00;99374.59;4964431;28;20253;-66
2022/04/06 05:37:46;;;;;;;25.00;14.03;;;;;;;7.35;100.00;99382.34;4967008;28;20370;-65
2022/04/06 05:40:16;;;;;;;27.33;14.17;;;;;;;7.40;100.00;99390.81;4961639;28;20293;-66
2022/04/06 05:42:43;;;;;;;28.00;14.77;;;;;;;7.42;100.00;99394.19;4972879;28;20230;-66
2022/04/06 05:45:10;;;;;;;23.20;14.27;;;;;;;7.48;100.00;99390.56;4956413;28;20209;-66
2022/04/06 05:47:37;;;;;;;27.00;14.67;;;;;;;7.51;100.00;99398.22;4958605;28;20210;-66
2022/04/06 05:50:06;;;;;;;26.93;14.03;;;;;;;7.54;100.00;99396.38;4964804;28;20220;-66
2022/04/06 05:52:33;;;;;;;28.37;14.33;;;;;;;7.57;100.00;99400.63;4956471;28;20858;-66
2022/04/06 05:55:00;;;;;;;26.97;14.50;;;;;;;7.60;100.00;99400.53;4970246;28;20198;-66
2022/04/06 05:57:27;;;;;;;26.77;14.33;;;;;;;7.62;100.00;99406.53;4960563;28;20294;-66
2022/04/06 05:59:53;;;;;;;27.40;14.83;;;;;;;7.62;100.00;99403.94;4955784;28;20574;-66
2022/04/06 06:02:19;;;;;;;26.90;14.93;;;;;;;7.62;100.00;99411.72;4953290;28;20225;-66
2022/04/06 06:04:46;;;;;;;27.17;13.70;;;;;;;7.61;100.00;99416.94;4952271;28;20302;-66
2022/04/06 06:07:12;;;;;;;23.37;12.47;;;;;;;7.63;100.00;99417.75;4956242;28;20671;-66
2022/04/06 06:09:39;;;;;;;23.57;13.03;;;;;;;7.65;100.00;99419.41;4952904;28;20213;-66
2022/04/06 06:12:07;;;;;;;25.63;13.90;;;;;;;7.70;100.00;99425.25;4946398;28;20801;-66
2022/04/06 06:14:33;;;;;;;24.47;13.00;;;;;;;7.74;100.00;99429.47;4943910;28;20206;-66
2022/04/06 06:17:00;;;;;;;23.43;13.27;;;;;;;7.78;100.00;99427.63;4948888;28;20203;-66
2022/04/06 06:19:26;;;;;;;25.20;14.27;;;;;;;7.80;100.00;99423.22;4954879;28;20230;-66
2022/04/06 06:21:52;;;;;;;20.37;12.87;;;;;;;7.88;100.00;99423.81;4959448;28;20594;-66
2022/04/06 06:24:20;;;;;;;24.30;13.33;;;;;;;7.94;100.00;99423.59;4961882;28;20671;-66
2022/04/06 06:26:47;;;;;;;23.40;12.80;;;;;;;8.03;100.00;99431.97;4963079;28;20247;-66
2022/04/06 06:29:15;;;;;;;21.90;12.80;;;;;;;8.10;100.00;99423.91;4973244;28;20197;-66
2022/04/06 06:31:42;;;;;;;20.23;12.27;;;;;;;8.21;100.00;99420.09;4964837;28;20200;-66
2022/04/06 06:34:08;;;;;;;17.13;11.13;;;;;;;8.21;100.00;99422.69;4953999;28;20207;-66
2022/04/06 06:36:35;;;;;;;16.73;11.67;;;;;;;8.26;100.00;99425.97;4955936;28;20714;-66
2022/04/06 06:39:03;;;;;;;16.67;11.07;;;;;;;8.31;100.00;99426.66;4955980;28;20300;-66
2022/04/06 06:41:29;;;;;;;14.70;10.17;;;;;;;8.36;100.00;99434.28;4954608;28;20588;-66
2022/04/06 06:43:58;;;;;;;15.67;9.80;;;;;;;8.37;100.00;99436.78;4966918;28;20207;-66
2022/04/06 06:46:26;;;;;;;15.33;10.17;;;;;;;8.44;100.00;99433.13;4961521;28;20289;-66
2022/04/06 06:48:54;;;;;;;13.27;9.93;;;;;;;8.46;100.00;99433.94;4960156;28;20524;-65
2022/04/06 06:51:20;;;;;;;14.73;10.33;;;;;;;8.50;100.00;99437.25;4961602;28;20299;-66
2022/04/06 06:53:46;;;;;;;14.80;10.13;;;;;;;8.57;100.00;99436.13;4962558;28;20236;-66
2022/04/06 06:56:14;;;;;;;14.87;10.47;;;;;;;8.61;100.00;99429.91;4952984;28;20204;-66
2022/04/06 06:58:40;;;;;;;14.27;8.47;;;;;;;8.64;100.00;99431.56;4960936;28;20670;-66
2022/04/06 07:01:06;;;;;;;12.83;9.10;;;;;;;8.61;100.00;99436.84;4966635;28;20206;-66
2022/04/06 07:03:34;;;;;;;14.23;9.63;;;;;;;8.63;100.00;99429.84;4966937;28;20511;-66
2022/04/06 07:06:00;;;;;;;16.87;9.20;;;;;;;8.69;100.00;99433.06;4957980;28;20262;-66
2022/04/06 07:08:26;;;;;;;13.27;8.77;;;;;;;8.77;100.00;99435.38;4957949;28;20229;-66
2022/04/06 07:10:53;;;;;;;17.83;9.13;;;;;;;8.87;100.00;99428.09;4961451;28;20324;-66
2022/04/06 07:13:19;;;;;;;12.23;8.50;;;;;;;8.95;100.00;99430.38;4966413;28;20224;-65
2022/04/06 07:15:45;;;;;;;15.43;7.80;;;;;;;8.99;100.00;99430.22;4955789;28;20234;-66
2022/04/06 07:18:13;;;;;;;14.30;8.70;;;;;;;9.10;100.00;99430.63;4968420;28;20204;-66
2022/04/06 07:20:41;;;;;;;14.27;8.73;;;;;;;9.23;100.00;99431.03;4965252;28;20224;-66
2022/04/06 07:23:08;;;;;;;10.93;6.57;;;;;;;9.29;100.00;99427.31;4951235;28;20583;-66
2022/04/06 07:25:35;;;;;;;11.43;7.50;;;;;;;9.33;100.00;99431.47;4970948;28;20226;-65
2022/04/06 07:28:01;;;;;;;12.40;8.30;;;;;;;9.34;100.00;99434.91;4957848;28;20198;-66
2022/04/06 07:30:28;;;;;;;11.67;7.90;;;;;;;9.46;100.00;99427.50;4960860;28;20628;-67
2022/04/06 07:32:55;;;;;;;12.53;8.13;;;;;;;9.52;100.00;99428.16;4952526;28;20703;-66
2022/04/06 07:35:22;;;;;;;10.57;7.80;;;;;;;9.59;100.00;99429.59;4963644;28;20728;-66
2022/04/06 07:37:50;;;;;;;9.83;7.20;;;;;;;9.63;100.00;99434.59;4962665;28;20267;-66
2022/04/06 07:40:19;;;;;;;10.70;7.17;;;;;;;9.72;100.00;99409.94;4961170;28;20194;-66
2022/04/06 07:42:47;;;;;;;7.83;6.47;;;;;;;9.71;100.00;99426.47;4951902;28;20234;-65
2022/04/06 07:45:16;;;;;;;10.40;7.13;;;;;;;9.62;100.00;99434.66;4948482;28;20260;-66
2022/04/06 07:47:44;;;;;;;10.27;6.93;;;;;;;9.63;100.00;99420.75;4949222;28;20206;-66
2022/04/06 07:50:12;;;;;;;9.43;6.80;;;;;;;9.63;100.00;99436.34;4960266;28;20213;-66
2022/04/06 07:52:39;;;;;;;11.30;7.33;;;;;;;9.73;100.00;99426.44;4946634;28;20385;-66
2022/04/06 07:55:09;;;;;;;10.73;7.10;;;;;;;9.69;100.00;99423.06;4951284;28;20202;-65
2022/04/06 07:57:36;;;;;;;9.23;7.27;;;;;;;9.75;100.00;99428.03;4943954;28;20241;-66
2022/04/06 08:00:06;;;;;;;10.60;7.57;;;;;;;9.73;100.00;99421.22;4948660;28;20218;-66
2022/04/06 08:02:32;;;;;;;10.47;7.90;;;;;;;9.77;100.00;99421.00;4961510;28;20242;-66
2022/04/06 08:04:59;;;;;;;10.97;7.17;;;;;;;9.74;100.00;99425.50;4965634;28;20213;-66
2022/04/06 08:07:25;;;;;;;10.23;8.00;;;;;;;9.84;100.00;99419.00;4959813;28;20214;-66
2022/04/06 08:09:52;;;;;;;11.10;7.87;;;;;;;9.95;100.00;99415.94;4960926;28;20194;-65
2022/04/06 08:12:20;;;;;;;9.47;7.33;;;;;;;9.97;100.00;99422.78;4963056;28;20233;-67
2022/04/06 08:14:48;;;;;;;10.30;7.37;;;;;;;10.01;100.00;99426.09;4960003;28;20584;-66
2022/04/06 08:17:15;;;;;;;10.57;7.37;;;;;;;10.09;100.00;99413.59;4947275;28;20543;-66
2022/04/06 08:19:41;;;;;;;10.17;7.30;;;;;;;10.20;100.00;99420.91;4954198;28;20578;-66
2022/04/06 08:22:08;;;;;;;9.37;7.57;;;;;;;10.21;100.00;99422.63;4966697;28;20741;-66
2022/04/06 08:24:34;;;;;;;11.17;7.80;;;;;;;10.22;100.00;99432.97;4953529;28;20214;-66
2022/04/06 08:27:01;;;;;;;7.97;6.57;;;;;;;10.25;100.00;99437.19;4972137;28;20577;-66
2022/04/06 08:29:28;;;;;;;10.17;6.97;;;;;;;10.28;100.00;99433.63;4963213;28;21062;-66
2022/04/06 08:31:54;;;;;;;9.60;6.90;;;;;;;10.30;100.00;99434.41;4970178;28;20565;-66
2022/04/06 08:34:21;;;;;;;9.53;6.97;;;;;;;10.28;100.00;99441.44;4964657;28;20224;-65
2022/04/06 08:36:47;;;;;;;8.67;6.63;;;;;;;10.22;100.00;99432.16;4966591;28;20204;-65
2022/04/06 08:39:13;;;;;;;10.83;6.50;;;;;;;10.19;100.00;99438.31;4961558;28;20208;-66
2022/04/06 08:41:40;;;;;;;9.60;6.90;;;;;;;10.13;100.00;99440.34;4963961;28;20210;-66
2022/04/06 08:44:08;;;;;;;11.70;7.80;;;;;;;10.13;100.00;99440.34;4961538;28;20838;-65
2022/04/06 08:46:38;;;;;;;12.00;8.00;;;;;;;10.27;100.00;99430.16;4962211;28;20211;-66
2022/04/06 08:49:04;;;;;;;10.27;6.50;;;;;;;10.37;100.00;99438.47;4969442;28;20694;-66
2022/04/06 08:51:33;;;;;;;9.40;7.10;;;;;;;10.47;100.00;99429.31;4966744;28;20207;-66
2022/04/06 08:54:00;;;;;;;13.07;9.13;;;;;;;10.61;100.00;99428.72;4973062;28;20228;-66
2022/04/06 08:56:27;;;;;;;8.67;6.97;;;;;;;10.67;100.00;99433.63;4954049;28;20236;-66
2022/04/06 08:58:53;;;;;;;10.53;7.73;;;;;;;10.70;100.00;99432.66;4971807;28;20266;-66
2022/04/06 09:01:21;;;;;;;13.60;9.87;;;;;;;10.86;100.00;99436.25;4967244;28;20620;-66
2022/04/06 09:03:49;;;;;;;9.73;7.03;;;;;;;10.91;100.00;99429.06;4966549;28;20223;-65
2022/04/06 09:06:16;;;;;;;9.63;7.43;;;;;;;10.97;100.00;99439.19;4960648;28;20246;-65
2022/04/06 09:08:44;;;;;;;8.23;6.57;;;;;;;11.12;100.00;99429.81;4950615;28;20231;-66
2022/04/06 09:11:12;;;;;;;9.53;6.10;;;;;;;11.14;100.00;99419.31;4958503;28;20209;-66
2022/04/06 09:13:39;;;;;;;8.67;6.30;;;;;;;11.13;100.00;99426.31;4957898;28;20654;-65
2022/04/06 09:16:09;;;;;;;8.67;5.97;;;;;;;11.20;100.00;99426.00;4960391;28;20216;-66
2022/04/06 09:18:36;;;;;;;9.97;6.40;;;;;;;11.41;100.00;99429.34;4956423;28;20205;-66
2022/04/06 09:21:04;;;;;;;7.40;5.67;;;;;;;11.57;100.00;99435.50;4946337;28;20206;-65
2022/04/06 09:23:32;;;;;;;10.27;7.20;;;;;;;11.48;99.01;99428.94;4949863;28;20217;-65
2022/04/06 09:26:03;;;;;;;9.43;5.60;;;;;;;11.49;100.00;99430.66;4962835;28;20204;-66
2022/04/06 09:28:30;;;;;;;7.07;5.67;;;;;;;11.46;100.00;99420.34;4967274;28;20201;-66
2022/04/06 09:30:56;;;;;;;8.00;5.47;;;;;;;11.45;100.00;99423.91;4970314;28;20831;-66
2022/04/06 09:33:23;;;;;;;7.73;6.03;;;;;;;11.60;100.00;99424.91;4975273;28;20632;-66
2022/04/06 09:35:50;;;;;;;8.33;5.60;;;;;;;11.47;98.26;99421.22;4970298;28;20200;-66
2022/04/06 09:38:22;;;;;;;9.30;5.77;;;;;;;11.54;99.94;99413.00;4962728;28;20245;-66
2022/04/06 09:40:50;;;;;;;6.93;4.77;;;;;;;11.55;97.51;99413.84;4965262;28;20290;-66
2022/04/06 09:43:27;;;;;;;11.83;5.63;;;;;;;11.69;98.75;99405.31;4976976;28;20236;-66
2022/04/06 09:48:55;;;;;;;7.43;4.90;;;;;;;11.95;95.14;99418.88;4971670;28;20215;-65
2022/04/06 09:51:22;;;;;;;8.43;5.20;;;;;;;11.87;93.85;99425.31;4966656;28;20217;-66
2022/04/06 09:53:51;;;;;;;7.57;4.47;;;;;;;12.04;95.84;99408.78;4969726;28;20249;-66
2022/04/06 09:56:18;;;;;;;5.77;4.37;;;;;;;12.00;95.40;99404.66;4963935;28;20205;-66
2022/04/06 09:58:45;;;;;;;7.93;4.87;;;;;;;11.98;93.92;99423.91;4972448;28;20217;-65
2022/04/06 10:01:13;;;;;;;6.87;4.50;;;;;;;11.89;94.43;99418.22;4967334;28;20198;-65
2022/04/06 10:03:44;;;;;;;7.07;4.60;;;;;;;11.85;93.72;99419.28;4971837;28;20610;-66
2022/04/06 10:06:11;;;;;;;9.20;4.87;;;;;;;11.92;95.52;99422.47;4965162;28;20686;-66
2022/04/06 10:08:39;;;;;;;6.57;4.73;;;;;;;11.85;93.64;99416.69;4978623;28;20596;-66
2022/04/06 10:11:07;;;;;;;7.00;4.60;;;;;;;11.89;94.89;99405.19;4967499;28;20698;-66
2022/04/06 10:13:34;;;;;;;6.37;4.30;;;;;;;11.84;93.29;99403.72;4966342;28;20226;-66
2022/04/06 10:16:00;;;;;;;7.10;4.70;;;;;;;11.80;93.20;99399.56;4976450;28;20237;-67
2022/04/06 10:18:28;;;;;;;6.17;4.43;;;;;;;11.75;91.67;99412.88;4969525;28;20412;-66
2022/04/06 10:21:00;;;;;;;6.80;5.20;;;;;;;11.76;91.80;99396.25;4978289;28;20203;-66
2022/04/06 10:23:36;;;;;;;8.27;4.37;;;;;;;11.80;91.66;99396.94;4970188;28;20217;-67
2022/04/06 10:26:11;;;;;;;7.60;4.07;;;;;;;11.88;92.35;99387.81;4969957;28;20201;-66
2022/04/06 10:28:44;;;;;;;6.93;4.43;;;;;;;12.04;91.55;99395.72;4965588;28;20221;-67
2022/04/06 10:31:15;;;;;;;8.77;4.50;;;;;;;12.18;92.12;99388.94;4962092;28;20252;-66
2022/04/06 10:33:41;;;;;;;9.03;4.90;;;;;;;12.13;89.61;99389.19;4968577;28;20273;-67
2022/04/06 10:36:17;;;;;;;7.07;4.70;;;;;;;12.19;89.67;99390.63;4969926;28;20206;-66
2022/04/06 10:39:11;;;;;;;4.73;4.20;;;;;;;12.19;89.16;99390.63;4956344;28;20210;-66
2022/04/06 10:42:00;;;;;;;8.70;4.93;;;;;;;12.23;89.25;99390.38;4955726;28;20207;-67
2022/04/06 10:44:39;;;;;;;8.57;5.00;;;;;;;12.43;87.74;99391.94;4964407;28;20210;-66
2022/04/06 10:47:07;;;;;;;8.53;4.73;;;;;;;12.61;87.80;99397.97;4961265;28;20209;-66
2022/04/06 10:49:33;;;;;;;7.43;4.33;;;;;;;12.56;86.22;99394.75;4957952;28;20214;-66
2022/04/06 10:52:17;;;;;;;7.20;4.37;;;;;;;12.53;85.60;99388.84;4957147;28;20232;-66
2022/04/06 10:54:43;;;;;;;10.07;4.80;;;;;;;12.55;85.87;99387.81;4957725;28;20598;-67
2022/04/06 10:57:10;;;;;;;7.47;4.33;;;;;;;12.48;84.11;99392.53;4944405;28;20233;-66
2022/04/06 10:59:38;;;;;;;7.37;4.63;;;;;;;12.36;82.20;99403.66;4959867;28;20222;-67
2022/04/06 11:02:23;;;;;;;7.10;4.63;;;;;;;12.27;84.35;99397.13;4964148;28;20226;-66
2022/04/06 11:04:50;;;;;;;7.10;4.30;;;;;;;12.33;84.68;99393.38;4955157;28;20618;-67
2022/04/06 11:10:16;;;;;;;6.80;4.00;;;;;;;12.29;84.37;99384.00;4951493;28;20554;-67
2022/04/06 11:12:58;;;;;;;5.47;3.97;;;;;;;12.22;83.30;99396.53;4952854;28;20268;-67
2022/04/06 11:15:37;;;;;;;6.33;4.43;;;;;;;12.06;83.99;99391.25;4950866;28;20251;-66
2022/04/06 11:18:04;;;;;;;6.27;4.10;;;;;;;12.03;83.42;99385.34;4964615;28;20198;-66
2022/04/06 11:20:33;;;;;;;7.53;4.63;;;;;;;12.02;84.84;99386.28;4976353;28;20247;-67
2022/04/06 11:23:00;;;;;;;8.73;4.90;;;;;;;11.92;83.00;99381.56;4959685;28;20504;-67
2022/04/06 11:25:27;;;;;;;9.17;5.43;;;;;;;11.84;82.66;99378.44;4972101;28;20197;-66
2022/04/06 11:27:55;;;;;;;7.03;4.47;;;;;;;11.88;85.29;99374.75;4963851;28;20205;-67
2022/04/06 11:30:23;;;;;;;6.97;4.37;;;;;;;12.00;84.93;99375.09;4964139;28;20209;-67
2022/04/06 11:32:56;;;;;;;7.10;5.23;;;;;;;11.91;84.46;99377.22;4956626;28;20233;-67